sensor_id;sensor_type;location;lat;lon;timestamp;P1;durP1;ratioP1;P2;durP2;ratioP2
6223;SDS011;3145;42.726;23.342;2023-07-29T00:00:55;3.90;;;3.60;;
6223;SDS011;3145;42.726;23.342;2023-07-29T00:03:22;8.47;;;4.13;;
6223;SDS011;3145;42.726;23.342;2023-07-29T00:05:49;4.13;;;3.83;;
6223;SDS011;3145;42.726;23.342;2023-07-29T00:08:16;4.17;;;3.83;;
6223;SDS011;3145;42.726;23.342;2023-07-29T00:10:43;4.03;;;3.63;;
6223;SDS011;3145;42.726;23.342;2023-07-29T00:13:11;3.87;;;3.57;;
6223;SDS011;3145;42.726;23.342;2023-07-29T00:15:38;4.43;;;4.13;;
6223;SDS011;3145;42.726;23.342;2023-07-29T00:18:04;4.33;;;4.03;;
6223;SDS011;3145;42.726;23.342;2023-07-29T00:20:31;5.80;;;3.70;;
6223;SDS011;3145;42.726;23.342;2023-07-29T00:22:58;3.80;;;3.60;;
6223;SDS011;3145;42.726;23.342;2023-07-29T00:25:24;5.13;;;3.67;;
6223;SDS011;3145;42.726;23.342;2023-07-29T00:27:51;6.67;;;4.23;;
6223;SDS011;3145;42.726;23.342;2023-07-29T00:30:22;3.90;;;3.60;;
6223;SDS011;3145;42.726;23.342;2023-07-29T00:32:49;4.53;;;4.10;;
6223;SDS011;3145;42.726;23.342;2023-07-29T00:35:15;5.30;;;3.90;;
6223;SDS011;3145;42.726;23.342;2023-07-29T00:37:42;4.73;;;4.40;;
6223;SDS011;3145;42.726;23.342;2023-07-29T00:40:12;6.97;;;4.07;;
6223;SDS011;3145;42.726;23.342;2023-07-29T00:42:41;10.77;;;3.83;;
6223;SDS011;3145;42.726;23.342;2023-07-29T00:45:08;3.60;;;3.40;;
6223;SDS011;3145;42.726;23.342;2023-07-29T00:47:36;6.13;;;3.60;;
6223;SDS011;3145;42.726;23.342;2023-07-29T00:50:04;4.23;;;3.83;;
6223;SDS011;3145;42.726;23.342;2023-07-29T00:52:32;4.67;;;4.13;;
6223;SDS011;3145;42.726;23.342;2023-07-29T00:54:59;5.30;;;3.83;;
6223;SDS011;3145;42.726;23.342;2023-07-29T00:57:26;7.50;;;3.80;;
6223;SDS011;3145;42.726;23.342;2023-07-29T00:59:53;3.90;;;3.60;;
6223;SDS011;3145;42.726;23.342;2023-07-29T01:02:20;4.87;;;3.20;;
6223;SDS011;3145;42.726;23.342;2023-07-29T01:04:52;3.90;;;3.50;;
6223;SDS011;3145;42.726;23.342;2023-07-29T01:07:21;4.23;;;3.93;;
6223;SDS011;3145;42.726;23.342;2023-07-29T01:09:56;3.77;;;3.47;;
6223;SDS011;3145;42.726;23.342;2023-07-29T01:12:31;4.40;;;4.10;;
6223;SDS011;3145;42.726;23.342;2023-07-29T01:15:09;4.33;;;4.03;;
6223;SDS011;3145;42.726;23.342;2023-07-29T01:17:41;4.07;;;3.77;;
6223;SDS011;3145;42.726;23.342;2023-07-29T01:20:15;4.50;;;3.40;;
6223;SDS011;3145;42.726;23.342;2023-07-29T01:22:45;4.63;;;3.90;;
6223;SDS011;3145;42.726;23.342;2023-07-29T01:25:13;3.87;;;3.63;;
6223;SDS011;3145;42.726;23.342;2023-07-29T01:27:41;3.53;;;3.30;;
6223;SDS011;3145;42.726;23.342;2023-07-29T01:30:09;5.43;;;4.13;;
6223;SDS011;3145;42.726;23.342;2023-07-29T01:32:38;6.43;;;4.03;;
6223;SDS011;3145;42.726;23.342;2023-07-29T01:35:11;3.97;;;3.77;;
6223;SDS011;3145;42.726;23.342;2023-07-29T01:37:47;4.77;;;4.10;;
6223;SDS011;3145;42.726;23.342;2023-07-29T01:40:19;4.37;;;3.97;;
6223;SDS011;3145;42.726;23.342;2023-07-29T01:42:48;4.93;;;4.47;;
6223;SDS011;3145;42.726;23.342;2023-07-29T01:45:15;3.93;;;3.53;;
6223;SDS011;3145;42.726;23.342;2023-07-29T01:47:42;3.90;;;3.70;;
6223;SDS011;3145;42.726;23.342;2023-07-29T01:50:09;4.70;;;4.30;;
6223;SDS011;3145;42.726;23.342;2023-07-29T01:52:36;4.03;;;3.73;;
6223;SDS011;3145;42.726;23.342;2023-07-29T01:55:03;4.13;;;3.83;;
6223;SDS011;3145;42.726;23.342;2023-07-29T01:57:31;4.37;;;4.07;;
6223;SDS011;3145;42.726;23.342;2023-07-29T01:59:58;4.37;;;4.07;;
6223;SDS011;3145;42.726;23.342;2023-07-29T02:02:25;4.40;;;4.00;;
6223;SDS011;3145;42.726;23.342;2023-07-29T02:04:51;4.70;;;3.80;;
6223;SDS011;3145;42.726;23.342;2023-07-29T02:07:20;4.40;;;4.10;;
6223;SDS011;3145;42.726;23.342;2023-07-29T02:09:47;5.13;;;4.73;;
6223;SDS011;3145;42.726;23.342;2023-07-29T02:12:14;4.47;;;4.10;;
6223;SDS011;3145;42.726;23.342;2023-07-29T02:14:42;4.40;;;4.07;;
6223;SDS011;3145;42.726;23.342;2023-07-29T02:17:09;4.20;;;3.90;;
6223;SDS011;3145;42.726;23.342;2023-07-29T02:19:35;4.40;;;4.10;;
6223;SDS011;3145;42.726;23.342;2023-07-29T02:22:02;4.73;;;3.90;;
6223;SDS011;3145;42.726;23.342;2023-07-29T02:24:29;6.33;;;4.60;;
6223;SDS011;3145;42.726;23.342;2023-07-29T02:26:55;4.43;;;4.13;;
6223;SDS011;3145;42.726;23.342;2023-07-29T02:29:22;5.40;;;4.43;;
6223;SDS011;3145;42.726;23.342;2023-07-29T02:31:51;4.70;;;4.30;;
6223;SDS011;3145;42.726;23.342;2023-07-29T02:34:18;4.70;;;4.30;;
6223;SDS011;3145;42.726;23.342;2023-07-29T02:36:45;4.83;;;4.47;;
6223;SDS011;3145;42.726;23.342;2023-07-29T02:39:12;6.43;;;4.10;;
6223;SDS011;3145;42.726;23.342;2023-07-29T02:41:38;5.80;;;4.30;;
6223;SDS011;3145;42.726;23.342;2023-07-29T02:44:05;5.20;;;4.37;;
6223;SDS011;3145;42.726;23.342;2023-07-29T02:46:32;4.53;;;4.20;;
6223;SDS011;3145;42.726;23.342;2023-07-29T02:49:01;4.83;;;4.53;;
6223;SDS011;3145;42.726;23.342;2023-07-29T02:51:28;4.47;;;4.17;;
6223;SDS011;3145;42.726;23.342;2023-07-29T02:53:55;4.97;;;4.43;;
6223;SDS011;3145;42.726;23.342;2023-07-29T02:56:21;4.77;;;4.47;;
6223;SDS011;3145;42.726;23.342;2023-07-29T02:58:48;6.13;;;4.10;;
6223;SDS011;3145;42.726;23.342;2023-07-29T03:01:16;4.47;;;4.13;;
6223;SDS011;3145;42.726;23.342;2023-07-29T03:03:43;4.93;;;4.37;;
6223;SDS011;3145;42.726;23.342;2023-07-29T03:06:12;4.70;;;4.40;;
6223;SDS011;3145;42.726;23.342;2023-07-29T03:08:41;4.40;;;4.10;;
6223;SDS011;3145;42.726;23.342;2023-07-29T03:11:08;3.97;;;3.73;;
6223;SDS011;3145;42.726;23.342;2023-07-29T03:13:36;6.47;;;4.70;;
6223;SDS011;3145;42.726;23.342;2023-07-29T03:16:06;4.80;;;4.40;;
6223;SDS011;3145;42.726;23.342;2023-07-29T03:18:33;5.20;;;4.70;;
6223;SDS011;3145;42.726;23.342;2023-07-29T03:21:00;4.83;;;4.53;;
6223;SDS011;3145;42.726;23.342;2023-07-29T03:23:29;5.00;;;4.60;;
6223;SDS011;3145;42.726;23.342;2023-07-29T03:25:57;6.47;;;4.27;;
6223;SDS011;3145;42.726;23.342;2023-07-29T03:28:25;5.10;;;4.70;;
6223;SDS011;3145;42.726;23.342;2023-07-29T03:30:53;4.67;;;4.37;;
6223;SDS011;3145;42.726;23.342;2023-07-29T03:33:19;5.80;;;4.60;;
6223;SDS011;3145;42.726;23.342;2023-07-29T03:35:46;5.27;;;4.87;;
6223;SDS011;3145;42.726;23.342;2023-07-29T03:38:13;5.07;;;4.60;;
6223;SDS011;3145;42.726;23.342;2023-07-29T03:40:42;6.70;;;4.27;;
6223;SDS011;3145;42.726;23.342;2023-07-29T03:43:09;5.43;;;4.93;;
6223;SDS011;3145;42.726;23.342;2023-07-29T03:45:36;7.20;;;4.70;;
6223;SDS011;3145;42.726;23.342;2023-07-29T03:48:04;8.50;;;4.70;;
6223;SDS011;3145;42.726;23.342;2023-07-29T03:50:32;5.13;;;4.70;;
6223;SDS011;3145;42.726;23.342;2023-07-29T03:53:00;7.20;;;4.57;;
6223;SDS011;3145;42.726;23.342;2023-07-29T03:55:27;8.83;;;4.77;;
6223;SDS011;3145;42.726;23.342;2023-07-29T03:57:56;5.50;;;4.67;;
6223;SDS011;3145;42.726;23.342;2023-07-29T04:00:23;8.63;;;4.47;;
6223;SDS011;3145;42.726;23.342;2023-07-29T04:02:49;9.13;;;4.10;;
6223;SDS011;3145;42.726;23.342;2023-07-29T04:05:16;20.13;;;4.97;;
6223;SDS011;3145;42.726;23.342;2023-07-29T04:07:43;5.20;;;3.90;;
6223;SDS011;3145;42.726;23.342;2023-07-29T04:10:10;9.47;;;4.73;;
6223;SDS011;3145;42.726;23.342;2023-07-29T04:12:37;14.77;;;5.00;;
6223;SDS011;3145;42.726;23.342;2023-07-29T04:15:06;7.83;;;4.70;;
6223;SDS011;3145;42.726;23.342;2023-07-29T04:17:34;9.30;;;4.37;;
6223;SDS011;3145;42.726;23.342;2023-07-29T04:20:00;3.97;;;3.60;;
6223;SDS011;3145;42.726;23.342;2023-07-29T04:22:28;12.90;;;4.97;;
6223;SDS011;3145;42.726;23.342;2023-07-29T04:24:54;37.53;;;12.37;;
6223;SDS011;3145;42.726;23.342;2023-07-29T04:27:21;43.53;;;13.13;;
6223;SDS011;3145;42.726;23.342;2023-07-29T04:29:48;40.47;;;11.87;;
6223;SDS011;3145;42.726;23.342;2023-07-29T04:32:16;14.03;;;6.30;;
6223;SDS011;3145;42.726;23.342;2023-07-29T04:34:42;12.77;;;6.57;;
6223;SDS011;3145;42.726;23.342;2023-07-29T04:37:09;8.97;;;5.73;;
6223;SDS011;3145;42.726;23.342;2023-07-29T04:39:36;12.50;;;6.30;;
6223;SDS011;3145;42.726;23.342;2023-07-29T04:42:03;7.13;;;4.27;;
6223;SDS011;3145;42.726;23.342;2023-07-29T04:44:30;3.90;;;3.63;;
6223;SDS011;3145;42.726;23.342;2023-07-29T04:46:57;6.20;;;4.93;;
6223;SDS011;3145;42.726;23.342;2023-07-29T04:49:25;8.93;;;5.50;;
6223;SDS011;3145;42.726;23.342;2023-07-29T04:51:51;4.50;;;4.17;;
6223;SDS011;3145;42.726;23.342;2023-07-29T04:54:18;6.93;;;5.28;;
6223;SDS011;3145;42.726;23.342;2023-07-29T04:56:46;5.00;;;4.50;;
6223;SDS011;3145;42.726;23.342;2023-07-29T04:59:13;4.35;;;4.13;;
6223;SDS011;3145;42.726;23.342;2023-07-29T05:01:40;5.38;;;4.95;;
6223;SDS011;3145;42.726;23.342;2023-07-29T05:04:08;5.65;;;5.13;;
6223;SDS011;3145;42.726;23.342;2023-07-29T05:06:36;4.55;;;4.10;;
6223;SDS011;3145;42.726;23.342;2023-07-29T05:09:12;4.35;;;3.95;;
6223;SDS011;3145;42.726;23.342;2023-07-29T05:11:39;4.90;;;4.28;;
6223;SDS011;3145;42.726;23.342;2023-07-29T05:14:06;5.85;;;4.38;;
6223;SDS011;3145;42.726;23.342;2023-07-29T05:16:34;6.50;;;4.20;;
6223;SDS011;3145;42.726;23.342;2023-07-29T05:19:01;6.50;;;4.38;;
6223;SDS011;3145;42.726;23.342;2023-07-29T05:21:28;8.48;;;4.50;;
6223;SDS011;3145;42.726;23.342;2023-07-29T05:23:56;5.95;;;5.45;;
6223;SDS011;3145;42.726;23.342;2023-07-29T05:26:23;5.25;;;4.78;;
6223;SDS011;3145;42.726;23.342;2023-07-29T05:28:50;7.25;;;5.50;;
6223;SDS011;3145;42.726;23.342;2023-07-29T05:31:17;5.53;;;4.78;;
6223;SDS011;3145;42.726;23.342;2023-07-29T05:33:44;9.00;;;6.20;;
6223;SDS011;3145;42.726;23.342;2023-07-29T05:36:10;7.47;;;6.72;;
6223;SDS011;3145;42.726;23.342;2023-07-29T05:38:37;5.80;;;5.10;;
6223;SDS011;3145;42.726;23.342;2023-07-29T05:41:05;6.18;;;5.68;;
6223;SDS011;3145;42.726;23.342;2023-07-29T05:43:31;6.38;;;5.88;;
6223;SDS011;3145;42.726;23.342;2023-07-29T05:45:58;9.00;;;5.55;;
6223;SDS011;3145;42.726;23.342;2023-07-29T05:48:25;9.35;;;5.55;;
6223;SDS011;3145;42.726;23.342;2023-07-29T05:50:51;9.40;;;5.13;;
6223;SDS011;3145;42.726;23.342;2023-07-29T05:53:18;6.45;;;5.07;;
6223;SDS011;3145;42.726;23.342;2023-07-29T05:55:45;5.47;;;4.57;;
6223;SDS011;3145;42.726;23.342;2023-07-29T05:58:13;5.47;;;5.07;;
6223;SDS011;3145;42.726;23.342;2023-07-29T06:00:39;10.57;;;5.25;;
6223;SDS011;3145;42.726;23.342;2023-07-29T06:03:06;5.10;;;4.60;;
6223;SDS011;3145;42.726;23.342;2023-07-29T06:05:33;8.30;;;4.82;;
6223;SDS011;3145;42.726;23.342;2023-07-29T06:07:59;6.97;;;4.95;;
6223;SDS011;3145;42.726;23.342;2023-07-29T06:10:26;5.63;;;5.22;;
6223;SDS011;3145;42.726;23.342;2023-07-29T06:12:53;6.07;;;5.38;;
6223;SDS011;3145;42.726;23.342;2023-07-29T06:15:21;7.32;;;5.82;;
6223;SDS011;3145;42.726;23.342;2023-07-29T06:17:48;6.63;;;5.57;;
6223;SDS011;3145;42.726;23.342;2023-07-29T06:20:15;7.80;;;5.15;;
6223;SDS011;3145;42.726;23.342;2023-07-29T06:22:41;9.27;;;6.03;;
6223;SDS011;3145;42.726;23.342;2023-07-29T06:25:08;7.53;;;5.85;;
6223;SDS011;3145;42.726;23.342;2023-07-29T06:27:35;7.72;;;5.85;;
6223;SDS011;3145;42.726;23.342;2023-07-29T06:30:02;8.73;;;5.88;;
6223;SDS011;3145;42.726;23.342;2023-07-29T06:32:30;11.05;;;6.30;;
6223;SDS011;3145;42.726;23.342;2023-07-29T06:34:57;7.78;;;5.68;;
6223;SDS011;3145;42.726;23.342;2023-07-29T06:37:24;5.82;;;5.43;;
6223;SDS011;3145;42.726;23.342;2023-07-29T06:39:50;8.75;;;5.68;;
6223;SDS011;3145;42.726;23.342;2023-07-29T06:42:17;6.32;;;5.70;;
6223;SDS011;3145;42.726;23.342;2023-07-29T06:44:44;9.68;;;5.30;;
6223;SDS011;3145;42.726;23.342;2023-07-29T06:47:11;7.15;;;6.20;;
6223;SDS011;3145;42.726;23.342;2023-07-29T06:49:39;7.25;;;5.50;;
6223;SDS011;3145;42.726;23.342;2023-07-29T06:52:06;7.30;;;6.72;;
6223;SDS011;3145;42.726;23.342;2023-07-29T06:54:33;7.35;;;5.93;;
6223;SDS011;3145;42.726;23.342;2023-07-29T06:56:59;7.07;;;6.20;;
6223;SDS011;3145;42.726;23.342;2023-07-29T06:59:26;10.68;;;6.93;;
6223;SDS011;3145;42.726;23.342;2023-07-29T07:01:53;6.10;;;5.35;;
6223;SDS011;3145;42.726;23.342;2023-07-29T07:04:19;8.60;;;5.97;;
6223;SDS011;3145;42.726;23.342;2023-07-29T07:06:47;6.15;;;5.38;;
6223;SDS011;3145;42.726;23.342;2023-07-29T07:09:14;8.07;;;5.82;;
6223;SDS011;3145;42.726;23.342;2023-07-29T07:11:41;13.10;;;5.72;;
6223;SDS011;3145;42.726;23.342;2023-07-29T07:14:07;5.95;;;5.38;;
6223;SDS011;3145;42.726;23.342;2023-07-29T07:16:34;9.07;;;5.80;;
6223;SDS011;3145;42.726;23.342;2023-07-29T07:19:02;8.05;;;5.53;;
6223;SDS011;3145;42.726;23.342;2023-07-29T07:21:28;6.32;;;5.68;;
6223;SDS011;3145;42.726;23.342;2023-07-29T07:23:56;5.78;;;5.25;;
6223;SDS011;3145;42.726;23.342;2023-07-29T07:26:23;7.07;;;5.13;;
6223;SDS011;3145;42.726;23.342;2023-07-29T07:28:50;5.15;;;4.72;;
6223;SDS011;3145;42.726;23.342;2023-07-29T07:31:17;5.43;;;5.00;;
6223;SDS011;3145;42.726;23.342;2023-07-29T07:33:44;8.73;;;5.03;;
6223;SDS011;3145;42.726;23.342;2023-07-29T07:36:11;7.88;;;5.30;;
6223;SDS011;3145;42.726;23.342;2023-07-29T07:38:37;5.30;;;4.72;;
6223;SDS011;3145;42.726;23.342;2023-07-29T07:41:05;5.93;;;5.32;;
6223;SDS011;3145;42.726;23.342;2023-07-29T07:43:32;5.50;;;4.80;;
6223;SDS011;3145;42.726;23.342;2023-07-29T07:45:59;4.68;;;4.20;;
6223;SDS011;3145;42.726;23.342;2023-07-29T07:48:27;7.32;;;4.13;;
6223;SDS011;3145;42.726;23.342;2023-07-29T07:50:54;7.97;;;4.15;;
6223;SDS011;3145;42.726;23.342;2023-07-29T07:53:21;4.90;;;4.45;;
6223;SDS011;3145;42.726;23.342;2023-07-29T07:55:48;4.13;;;3.67;;
6223;SDS011;3145;42.726;23.342;2023-07-29T07:58:16;4.63;;;4.20;;
6223;SDS011;3145;42.726;23.342;2023-07-29T08:00:43;4.78;;;4.38;;
6223;SDS011;3145;42.726;23.342;2023-07-29T08:03:09;7.30;;;4.80;;
6223;SDS011;3145;42.726;23.342;2023-07-29T08:05:36;6.57;;;4.63;;
6223;SDS011;3145;42.726;23.342;2023-07-29T08:08:03;6.72;;;4.57;;
6223;SDS011;3145;42.726;23.342;2023-07-29T08:10:29;7.60;;;5.05;;
6223;SDS011;3145;42.726;23.342;2023-07-29T08:12:56;5.35;;;4.85;;
6223;SDS011;3145;42.726;23.342;2023-07-29T08:15:24;10.73;;;5.38;;
6223;SDS011;3145;42.726;23.342;2023-07-29T08:17:51;7.07;;;6.35;;
6223;SDS011;3145;42.726;23.342;2023-07-29T08:20:17;10.93;;;6.35;;
6223;SDS011;3145;42.726;23.342;2023-07-29T08:22:44;8.23;;;5.15;;
6223;SDS011;3145;42.726;23.342;2023-07-29T08:25:11;5.07;;;4.68;;
6223;SDS011;3145;42.726;23.342;2023-07-29T08:27:38;6.90;;;4.53;;
6223;SDS011;3145;42.726;23.342;2023-07-29T08:30:05;6.75;;;5.30;;
6223;SDS011;3145;42.726;23.342;2023-07-29T08:32:34;5.03;;;4.53;;
6223;SDS011;3145;42.726;23.342;2023-07-29T08:35:01;9.98;;;5.80;;
6223;SDS011;3145;42.726;23.342;2023-07-29T08:37:27;15.40;;;8.15;;
6223;SDS011;3145;42.726;23.342;2023-07-29T08:39:54;23.90;;;12.80;;
6223;SDS011;3145;42.726;23.342;2023-07-29T08:42:21;10.30;;;6.25;;
6223;SDS011;3145;42.726;23.342;2023-07-29T08:44:49;7.75;;;4.25;;
6223;SDS011;3145;42.726;23.342;2023-07-29T08:47:18;4.90;;;3.58;;
6223;SDS011;3145;42.726;23.342;2023-07-29T08:49:46;6.93;;;3.58;;
6223;SDS011;3145;42.726;23.342;2023-07-29T08:52:16;3.33;;;3.13;;
6223;SDS011;3145;42.726;23.342;2023-07-29T08:54:44;3.95;;;3.17;;
6223;SDS011;3145;42.726;23.342;2023-07-29T08:57:12;4.53;;;3.47;;
6223;SDS011;3145;42.726;23.342;2023-07-29T08:59:40;4.35;;;4.00;;
6223;SDS011;3145;42.726;23.342;2023-07-29T09:02:07;4.28;;;2.95;;
6223;SDS011;3145;42.726;23.342;2023-07-29T09:04:34;9.77;;;3.03;;
6223;SDS011;3145;42.726;23.342;2023-07-29T09:07:03;3.33;;;2.95;;
6223;SDS011;3145;42.726;23.342;2023-07-29T09:09:32;4.40;;;2.08;;
6223;SDS011;3145;42.726;23.342;2023-07-29T09:11:58;1.73;;;1.63;;
6223;SDS011;3145;42.726;23.342;2023-07-29T09:14:25;1.92;;;1.30;;
6223;SDS011;3145;42.726;23.342;2023-07-29T09:16:53;1.90;;;1.70;;
6223;SDS011;3145;42.726;23.342;2023-07-29T09:19:20;2.67;;;1.75;;
6223;SDS011;3145;42.726;23.342;2023-07-29T09:21:46;2.85;;;1.48;;
6223;SDS011;3145;42.726;23.342;2023-07-29T09:24:16;1.70;;;1.60;;
6223;SDS011;3145;42.726;23.342;2023-07-29T09:26:48;1.90;;;1.40;;
6223;SDS011;3145;42.726;23.342;2023-07-29T09:29:15;1.75;;;1.38;;
6223;SDS011;3145;42.726;23.342;2023-07-29T09:31:47;3.30;;;1.40;;
6223;SDS011;3145;42.726;23.342;2023-07-29T09:34:14;1.30;;;1.20;;
6223;SDS011;3145;42.726;23.342;2023-07-29T09:36:42;1.58;;;1.20;;
6223;SDS011;3145;42.726;23.342;2023-07-29T09:39:10;3.33;;;1.20;;
6223;SDS011;3145;42.726;23.342;2023-07-29T09:41:39;1.48;;;1.27;;
6223;SDS011;3145;42.726;23.342;2023-07-29T09:44:06;1.42;;;1.08;;
6223;SDS011;3145;42.726;23.342;2023-07-29T09:46:34;3.50;;;1.27;;
6223;SDS011;3145;42.726;23.342;2023-07-29T09:49:02;1.73;;;1.38;;
6223;SDS011;3145;42.726;23.342;2023-07-29T09:51:29;1.33;;;1.23;;
6223;SDS011;3145;42.726;23.342;2023-07-29T09:53:56;2.15;;;0.93;;
6223;SDS011;3145;42.726;23.342;2023-07-29T09:56:24;1.15;;;0.85;;
6223;SDS011;3145;42.726;23.342;2023-07-29T09:58:53;0.60;;;0.60;;
6223;SDS011;3145;42.726;23.342;2023-07-29T10:01:22;2.72;;;0.70;;
6223;SDS011;3145;42.726;23.342;2023-07-29T10:03:49;1.50;;;0.70;;
6223;SDS011;3145;42.726;23.342;2023-07-29T10:06:16;3.53;;;0.90;;
6223;SDS011;3145;42.726;23.342;2023-07-29T10:08:44;3.33;;;0.80;;
6223;SDS011;3145;42.726;23.342;2023-07-29T10:11:11;0.93;;;0.82;;
6223;SDS011;3145;42.726;23.342;2023-07-29T10:13:38;2.97;;;0.85;;
6223;SDS011;3145;42.726;23.342;2023-07-29T10:16:06;2.88;;;0.80;;
6223;SDS011;3145;42.726;23.342;2023-07-29T10:18:33;4.65;;;1.20;;
6223;SDS011;3145;42.726;23.342;2023-07-29T10:21:01;1.95;;;1.00;;
6223;SDS011;3145;42.726;23.342;2023-07-29T10:23:31;1.52;;;1.20;;
6223;SDS011;3145;42.726;23.342;2023-07-29T10:26:02;1.55;;;1.45;;
6223;SDS011;3145;42.726;23.342;2023-07-29T10:28:30;5.45;;;1.23;;
6223;SDS011;3145;42.726;23.342;2023-07-29T10:30:59;1.60;;;1.20;;
6223;SDS011;3145;42.726;23.342;2023-07-29T10:33:27;2.50;;;2.03;;
6223;SDS011;3145;42.726;23.342;2023-07-29T10:35:54;2.00;;;1.20;;
6223;SDS011;3145;42.726;23.342;2023-07-29T10:38:21;1.20;;;1.13;;
6223;SDS011;3145;42.726;23.342;2023-07-29T10:40:50;1.25;;;1.15;;
6223;SDS011;3145;42.726;23.342;2023-07-29T10:43:24;1.60;;;0.70;;
6223;SDS011;3145;42.726;23.342;2023-07-29T10:45:52;1.77;;;0.60;;
6223;SDS011;3145;42.726;23.342;2023-07-29T10:51:23;1.20;;;0.90;;
6223;SDS011;3145;42.726;23.342;2023-07-29T10:53:58;1.33;;;0.95;;
6223;SDS011;3145;42.726;23.342;2023-07-29T10:56:26;0.70;;;0.60;;
6223;SDS011;3145;42.726;23.342;2023-07-29T10:58:55;0.93;;;0.60;;
6223;SDS011;3145;42.726;23.342;2023-07-29T11:01:26;0.32;;;0.20;;
6223;SDS011;3145;42.726;23.342;2023-07-29T11:04:02;0.82;;;0.60;;
6223;SDS011;3145;42.726;23.342;2023-07-29T11:07:01;1.02;;;0.77;;
6223;SDS011;3145;42.726;23.342;2023-07-29T11:09:51;0.50;;;0.50;;
6223;SDS011;3145;42.726;23.342;2023-07-29T11:12:40;1.67;;;1.00;;
6223;SDS011;3145;42.726;23.342;2023-07-29T11:15:12;1.17;;;0.82;;
6223;SDS011;3145;42.726;23.342;2023-07-29T11:17:41;1.05;;;0.75;;
6223;SDS011;3145;42.726;23.342;2023-07-29T11:20:11;2.03;;;0.98;;
6223;SDS011;3145;42.726;23.342;2023-07-29T11:22:38;0.70;;;0.70;;
6223;SDS011;3145;42.726;23.342;2023-07-29T11:25:07;0.90;;;0.68;;
6223;SDS011;3145;42.726;23.342;2023-07-29T11:27:34;0.98;;;0.80;;
6223;SDS011;3145;42.726;23.342;2023-07-29T11:30:02;0.85;;;0.75;;
6223;SDS011;3145;42.726;23.342;2023-07-29T11:32:31;0.80;;;0.80;;
6223;SDS011;3145;42.726;23.342;2023-07-29T11:35:01;0.73;;;0.73;;
6223;SDS011;3145;42.726;23.342;2023-07-29T11:37:30;2.15;;;0.90;;
6223;SDS011;3145;42.726;23.342;2023-07-29T11:39:56;0.70;;;0.70;;
6223;SDS011;3145;42.726;23.342;2023-07-29T11:42:24;0.77;;;0.77;;
6223;SDS011;3145;42.726;23.342;2023-07-29T11:44:52;0.80;;;0.70;;
6223;SDS011;3145;42.726;23.342;2023-07-29T11:47:18;1.08;;;0.95;;
6223;SDS011;3145;42.726;23.342;2023-07-29T11:49:45;0.63;;;0.50;;
6223;SDS011;3145;42.726;23.342;2023-07-29T11:52:12;1.98;;;0.98;;
6223;SDS011;3145;42.726;23.342;2023-07-29T11:54:40;0.75;;;0.57;;
6223;SDS011;3145;42.726;23.342;2023-07-29T11:57:07;0.75;;;0.60;;
6223;SDS011;3145;42.726;23.342;2023-07-29T11:59:34;0.85;;;0.85;;
6223;SDS011;3145;42.726;23.342;2023-07-29T12:02:05;0.52;;;0.52;;
6223;SDS011;3145;42.726;23.342;2023-07-29T12:04:34;0.60;;;0.60;;
6223;SDS011;3145;42.726;23.342;2023-07-29T12:07:02;1.15;;;0.88;;
6223;SDS011;3145;42.726;23.342;2023-07-29T12:09:29;1.70;;;0.60;;
6223;SDS011;3145;42.726;23.342;2023-07-29T12:11:58;0.70;;;0.60;;
6223;SDS011;3145;42.726;23.342;2023-07-29T12:14:25;1.85;;;0.60;;
6223;SDS011;3145;42.726;23.342;2023-07-29T12:16:53;2.13;;;0.60;;
6223;SDS011;3145;42.726;23.342;2023-07-29T12:19:19;3.15;;;0.60;;
6223;SDS011;3145;42.726;23.342;2023-07-29T12:21:47;1.25;;;0.60;;
6223;SDS011;3145;42.726;23.342;2023-07-29T12:24:14;3.40;;;0.50;;
6223;SDS011;3145;42.726;23.342;2023-07-29T12:26:41;0.80;;;0.73;;
6223;SDS011;3145;42.726;23.342;2023-07-29T12:29:13;2.05;;;0.95;;
6223;SDS011;3145;42.726;23.342;2023-07-29T12:31:40;0.80;;;0.70;;
6223;SDS011;3145;42.726;23.342;2023-07-29T12:34:07;1.33;;;0.80;;
6223;SDS011;3145;42.726;23.342;2023-07-29T12:36:41;2.20;;;0.77;;
6223;SDS011;3145;42.726;23.342;2023-07-29T12:39:20;2.60;;;0.88;;
6223;SDS011;3145;42.726;23.342;2023-07-29T12:41:48;3.65;;;0.90;;
6223;SDS011;3145;42.726;23.342;2023-07-29T12:44:18;3.55;;;0.80;;
6223;SDS011;3145;42.726;23.342;2023-07-29T12:46:45;2.35;;;0.70;;
6223;SDS011;3145;42.726;23.342;2023-07-29T12:49:12;1.63;;;0.90;;
6223;SDS011;3145;42.726;23.342;2023-07-29T12:51:38;1.15;;;0.80;;
6223;SDS011;3145;42.726;23.342;2023-07-29T12:54:05;1.92;;;0.90;;
6223;SDS011;3145;42.726;23.342;2023-07-29T12:56:32;1.40;;;1.25;;
6223;SDS011;3145;42.726;23.342;2023-07-29T12:58:59;0.93;;;0.80;;
6223;SDS011;3145;42.726;23.342;2023-07-29T13:01:28;1.48;;;0.73;;
6223;SDS011;3145;42.726;23.342;2023-07-29T13:03:55;1.52;;;0.60;;
6223;SDS011;3145;42.726;23.342;2023-07-29T13:06:22;1.77;;;0.60;;
6223;SDS011;3145;42.726;23.342;2023-07-29T13:08:49;2.38;;;0.80;;
6223;SDS011;3145;42.726;23.342;2023-07-29T13:11:16;0.77;;;0.60;;
6223;SDS011;3145;42.726;23.342;2023-07-29T13:13:43;2.53;;;1.00;;
6223;SDS011;3145;42.726;23.342;2023-07-29T13:16:10;3.10;;;0.95;;
6223;SDS011;3145;42.726;23.342;2023-07-29T13:18:38;1.38;;;0.60;;
6223;SDS011;3145;42.726;23.342;2023-07-29T13:21:05;0.98;;;0.60;;
6223;SDS011;3145;42.726;23.342;2023-07-29T13:23:32;1.00;;;0.80;;
6223;SDS011;3145;42.726;23.342;2023-07-29T13:25:59;1.58;;;0.70;;
6223;SDS011;3145;42.726;23.342;2023-07-29T13:28:25;0.88;;;0.70;;
6223;SDS011;3145;42.726;23.342;2023-07-29T13:30:52;1.77;;;0.68;;
6223;SDS011;3145;42.726;23.342;2023-07-29T13:33:19;0.80;;;0.80;;
6223;SDS011;3145;42.726;23.342;2023-07-29T13:35:47;1.95;;;0.75;;
6223;SDS011;3145;42.726;23.342;2023-07-29T13:38:14;1.10;;;0.70;;
6223;SDS011;3145;42.726;23.342;2023-07-29T13:40:41;1.35;;;0.70;;
6223;SDS011;3145;42.726;23.342;2023-07-29T13:43:08;1.40;;;1.10;;
6223;SDS011;3145;42.726;23.342;2023-07-29T13:45:34;0.70;;;0.70;;
6223;SDS011;3145;42.726;23.342;2023-07-29T13:48:01;2.40;;;0.90;;
6223;SDS011;3145;42.726;23.342;2023-07-29T13:50:28;2.05;;;0.68;;
6223;SDS011;3145;42.726;23.342;2023-07-29T13:52:56;0.75;;;0.75;;
6223;SDS011;3145;42.726;23.342;2023-07-29T13:55:23;1.90;;;0.77;;
6223;SDS011;3145;42.726;23.342;2023-07-29T13:57:49;1.02;;;0.80;;
6223;SDS011;3145;42.726;23.342;2023-07-29T14:00:16;2.20;;;0.85;;
6223;SDS011;3145;42.726;23.342;2023-07-29T14:02:43;1.85;;;0.90;;
6223;SDS011;3145;42.726;23.342;2023-07-29T14:05:09;0.70;;;0.60;;
6223;SDS011;3145;42.726;23.342;2023-07-29T14:07:36;0.75;;;0.75;;
6223;SDS011;3145;42.726;23.342;2023-07-29T14:10:05;0.80;;;0.80;;
6223;SDS011;3145;42.726;23.342;2023-07-29T14:12:33;1.50;;;1.25;;
6223;SDS011;3145;42.726;23.342;2023-07-29T14:15:00;2.20;;;1.27;;
6223;SDS011;3145;42.726;23.342;2023-07-29T14:17:27;1.55;;;1.20;;
6223;SDS011;3145;42.726;23.342;2023-07-29T14:19:53;2.05;;;1.10;;
6223;SDS011;3145;42.726;23.342;2023-07-29T14:22:20;1.20;;;1.10;;
6223;SDS011;3145;42.726;23.342;2023-07-29T14:24:47;1.48;;;1.30;;
6223;SDS011;3145;42.726;23.342;2023-07-29T14:27:15;2.65;;;1.42;;
6223;SDS011;3145;42.726;23.342;2023-07-29T14:29:42;3.22;;;1.40;;
6223;SDS011;3145;42.726;23.342;2023-07-29T14:32:09;2.08;;;1.52;;
6223;SDS011;3145;42.726;23.342;2023-07-29T14:34:35;3.55;;;1.10;;
6223;SDS011;3145;42.726;23.342;2023-07-29T14:37:02;1.17;;;1.08;;
6223;SDS011;3145;42.726;23.342;2023-07-29T14:39:29;1.40;;;1.30;;
6223;SDS011;3145;42.726;23.342;2023-07-29T14:41:56;2.00;;;1.20;;
6223;SDS011;3145;42.726;23.342;2023-07-29T14:44:24;1.23;;;1.13;;
6223;SDS011;3145;42.726;23.342;2023-07-29T14:46:51;1.10;;;1.00;;
6223;SDS011;3145;42.726;23.342;2023-07-29T14:49:18;1.38;;;1.00;;
6223;SDS011;3145;42.726;23.342;2023-07-29T14:51:45;2.28;;;1.13;;
6223;SDS011;3145;42.726;23.342;2023-07-29T14:54:12;1.77;;;0.77;;
6223;SDS011;3145;42.726;23.342;2023-07-29T14:56:38;1.20;;;1.10;;
6223;SDS011;3145;42.726;23.342;2023-07-29T14:59:05;2.25;;;0.90;;
6223;SDS011;3145;42.726;23.342;2023-07-29T15:01:33;1.00;;;1.00;;
6223;SDS011;3145;42.726;23.342;2023-07-29T15:04:00;1.20;;;1.10;;
6223;SDS011;3145;42.726;23.342;2023-07-29T15:06:26;1.30;;;1.20;;